Hlavní strana
METAR-TAF:

METAR-TAF

Letiště :

Båtsfjord, Norsko

zeměpisná šířka: 70-38N, zeměpisná délka: 029-44E, výška: 10 m

Aktuální stav počasí

Zpráva byla vytvořena před 13 hodinami a 22 minutami, v 15:50 UTC
Jižní vítr 22 kt
Teplota 19°C
Vlhkost vzduchu 73%
Tlak 1000 hPa
Viditelnost 10 km a více
Skoro jasno ve výšce 3800 ft
Polojasno ve výšce 5500 ft

METAR: ENBS 171550Z 19022KT 9999 FEW038 SCT055 19/14 Q1000

Čas: 07:12 (05:12 UTC)


TAF: chybějící

Stav a předpovědi počasí z více než 4 000 letišť (zprávy METAR a TAF).

Červené a žluté tečky na mapě představují dostupné meteorologické stanice.

Když kurzor umístíte na tečku, zobrazí se název stanice.

Pak kliknutím zobrazíte stav a předpověď počasí.

Chcete-li změnit mapu, kliknutím na zelené tlačítko se znaménkem +mapu přiblížíte, kliknutím na zelené tlačítko se znaménkem – mapu oddálíte a kliknutím na zelené šipky přejdete na sousední mapy.


METAR-TAF: